• Join FlightAware (Why Join?)
  • Login
  • US Flag 
08:50PM EDT


 

Airport Tracker/Info


-or-


 

Live Flight TrackerFlight Track Log ✈ AWE3434 ✈ 12-09-2013 ✈ KPHL - KCMH

Flight Track Log - Related Links

Times and Time Zones

All times are in EDT time to prevent confusion due to time zone crossing. See the AWE3434 flight status page for this flight to view local times or setup timezone preferences in your user account.

Time Position Orientation Groundspeed Altitude Reporting Facility
EDT Latitude Longitude Course Direction KTS MPH feet Rate Location/Type
02:51PM 39.8667 -75.2833 247° West 160 184 600  Level Philadelphia TRACON
02:51PM 39.8667 -75.2833 247° West 158 182 800 1,500 Climbing Philadelphia TRACON
02:52PM 39.8500 -75.3500 252° West 225 259 2,300 2,100 Climbing Philadelphia TRACON
02:53PM 39.8500 -75.4333 270° West 265 305 5,000 2,760 Climbing Philadelphia TRACON
02:54PM 39.9135 -76.1499 244° Southwest  Level Estimated
02:54PM 39.9200 -75.4642 341° North 280 322 8,500  Level New York Center
02:55PM 39.9227 -76.3773 229° Southwest  Level Estimated
02:55PM 39.9983 -75.4858 348° North 274 315 10,000  Level New York Center
02:56PM 39.9314 -76.6048 247° West  Level Estimated
02:56PM 39.9994 -75.5617 271° West 181 208 10,000  Level New York Center
02:57PM 39.9428 -75.6256 221° Southwest 174 200 10,000 1,020 Level New York Center
02:58PM 39.9164 -75.7103 248° West 251 289 12,100 2,400 Climbing New York Center
02:59PM 39.9133 -75.8264 268° West 280 322 14,900 2,520 Climbing New York Center
03:00PM 39.9131 -75.9294 270° West 297 342 17,200 1,920 Climbing New York Center
03:01PM 39.9114 -76.0186 269° West 302 348 18,800 1,920 Climbing New York Center
03:02PM 39.9136 -76.1514 271° West 321 369 21,100 2,100 Climbing New York Center
03:03PM 39.9103 -76.2675 268° West 327 376 23,100 1,740 Climbing New York Center
03:04PM 39.9067 -76.3889 268° West 327 376 24,600 1,440 Climbing New York Center
03:05PM 39.8864 -76.5092 258° West 334 384 26,000 1,200 Climbing New York Center
03:06PM 39.8208 -76.6092 230° Southwest 334 384 27,100 780 Climbing New York Center
03:07PM 39.7614 -76.7178 235° Southwest 360 414 27,600 360 Climbing New York Center
03:08PM 39.7167 -76.8569 247° West 389 448 27,900 180 Climbing New York Center
03:09PM 39.6694 -77.0014 247° West 422 486 28,000  Climbing New York Center
03:11PM 39.5964 -77.2181 246° West 458 527 28,000  Level Washington Center
03:12PM 39.5464 -77.3706 247° West 458 527 28,000  Level Washington Center
03:13PM 39.4961 -77.5197 246° West 463 533 28,000  Level Washington Center
03:14PM 39.4436 -77.6689 246° West 463 533 28,000  Level Washington Center
03:15PM 39.3950 -77.8206 248° West 463 533 28,000  Level Washington Center
03:16PM 39.3403 -77.9692 245° Southwest 463 533 28,000  Level Washington Center
03:17PM 39.2811 -78.1119 242° Southwest 458 527 28,000  Level Washington Center
03:18PM 39.2236 -78.2575 243° Southwest 458 527 28,000  Level Washington Center
03:19PM 39.1639 -78.4053 243° Southwest 458 527 28,000  Level Washington Center
03:20PM 39.1064 -78.5475 243° Southwest 458 527 28,000  Level Washington Center
03:21PM 39.0464 -78.6919 242° Southwest 458 527 28,000  Level Washington Center
03:22PM 38.9906 -78.8364 244° Southwest 458 527 28,000  Level Washington Center
03:23PM 38.9800 -78.9964 265° West 453 521 28,000  Level Washington Center
03:24PM 38.9861 -79.1408 273° West 433 498 28,000  Level Washington Center
03:25PM 38.9775 -79.2844 266° West 415 478 28,000  Level Washington Center
03:26PM 38.9608 -79.4225 261° West 404 465 28,000  Level Washington Center
03:27PM 39.0089 -79.5481 296° West 384 442 28,000  Level Washington Center
03:28PM 39.0714 -79.6744 303° West 402 463 28,000  Level Washington Center
03:30PM 39.1772 -79.9022 301° West 396 456 28,000  Level Indianapolis Center
03:31PM 39.2381 -80.0219 303° West 401 461 28,000  Level Indianapolis Center
03:32PM 39.2975 -80.1425 303° West 401 461 28,000 -660 Level Indianapolis Center
03:33PM 39.3444 -80.3008 291° West 395 455 26,700 -1,620 Descending Indianapolis Center
03:34PM 39.3781 -80.4306 289° West 386 444 24,800 -1,320 Descending Indianapolis Center
03:35PM 39.4125 -80.5528 290° West 368 423 24,000 -420 Descending Indianapolis Center
03:36PM 39.4461 -80.6753 290° West 363 418 24,000 -840 Level Indianapolis Center
03:37PM 39.4792 -80.7967 289° West 360 414 22,300 -1,440 Descending Indianapolis Center
03:38PM 39.4933 -80.9178 279° West 341 392 21,100 -1,200 Descending Indianapolis Center
03:39PM 39.5050 -81.0736 276° West 361 415 19,900 -1,020 Descending Indianapolis Center
03:40PM 39.5147 -81.2044 276° West 365 420 19,000 -900 Descending Indianapolis Center
03:41PM 39.5242 -81.3311 276° West 359 413 18,100 -900 Descending Indianapolis Center
03:42PM 39.5333 -81.4561 275° West 353 406 17,200 -840 Descending Indianapolis Center
03:43PM 39.5414 -81.5811 275° West 351 404 16,400 -780 Descending Indianapolis Center
03:44PM 39.5500 -81.7047 275° West 347 399 15,600 -900 Descending Indianapolis Center
03:45PM 39.5600 -81.8481 275° West 337 388 14,600 -900 Descending Indianapolis Center
03:46PM 39.5683 -81.9661 275° West 331 381 13,800 -840 Descending Indianapolis Center
03:47PM 39.5722 -82.0522 273° West 328 377 13,200 -900 Descending Indianapolis Center
03:47PM 39.5764 -82.0822 280° West 327 376 12,900 -780 Descending Indianapolis Center
03:48PM 39.5842 -82.2072 275° West 327 376 12,100 -780 Descending Indianapolis Center
03:49PM 39.5900 -82.3017 275° West 290 334 11,500 -780 Descending Indianapolis Center
03:49PM 39.5914 -82.3122 280° West 299 344 11,300 -1,500 Descending Indianapolis Center
03:50PM 39.6497 -82.3594 328° Northwest 292 336 10,000 -1,260 Descending Indianapolis Center
03:50PM 39.6594 -82.3636 342° North 306 352 10,000 -240 Level Indianapolis Center
03:51PM 39.7239 -82.4006 336° Northwest 293 337 9,800 -300 Descending Indianapolis Center
03:51PM 39.7339 -82.4039 346° North 292 336 9,700 -1,020 Descending Indianapolis Center
03:52PM 39.7878 -82.4347 336° Northwest 235 270 8,800 -1,080 Descending Indianapolis Center
03:52PM 39.7944 -82.4383 337° Northwest 246 283 8,600 -1,680 Descending Indianapolis Center
03:53PM 39.8394 -82.4672 334° Northwest 221 254 7,300 -1,980 Descending Indianapolis Center
03:53PM 39.8611 -82.4789 338° Northwest 224 258 6,600 -1,500 Descending Indianapolis Center
03:55PM 39.9267 -82.5022 345° North 217 250 5,100 -960 Descending Indianapolis Center
03:55PM 39.9444 -82.5350 305° West 195 224 5,000 -120 Descending Indianapolis Center
03:55PM 39.9517 -82.5483 305° West 195 224 5,000 -840 Level Indianapolis Center
03:56PM 39.9733 -82.5886 305° West 173 199 4,200 -1,200 Descending Indianapolis Center
03:57PM 39.9797 -82.6011 304° West 180 207 3,800 -960 Descending Indianapolis Center
03:57PM 39.9889 -82.6703 280° West 184 212 3,000 -780 Descending Indianapolis Center
03:58PM 39.9906 -82.6669 57° Northeast 185 213 3,000 -120 Level Indianapolis Center
03:58PM 39.9931 -82.7364 273° West 183 211 2,900  Descending Indianapolis Center
03:59PM 39.9922 -82.7314 102° East 182 209 3,000 -900 Climbing Indianapolis Center
03:59PM 39.9958 -82.7969 274° West 179 206 2,100 -1,080 Descending Indianapolis Center
04:00PM 39.9972 -82.8061 281° West 176 203 1,900 -660 Descending Indianapolis Center
04:01PM 39.9997 -82.8503 274° West 143 165 1,300 -360 Descending Indianapolis Center
04:02PM 40.0031 -82.8942 276° West 139 160 1,200 -120 Descending Indianapolis Center